Flight Track Log - Related Links

Times and Time Zones

All times are in EDT time to prevent confusion due to time zone crossing. See the JZA8279 flight status page for this flight to view local times or setup timezone preferences in your user account.

Time Position Orientation Groundspeed Altitude Reporting Facility
EDT Latitude Longitude Course Direction KTS MPH feet Rate Location/Type
Wed 01:44:10 PM 54.2667 -130.4667 150° Southeast 110 127 600  Level Vancouver Center
Wed 01:45:10 PM 54.2333 -130.4333 150° Southeast 140 161 2,200 1,550 Climbing Vancouver Center
Wed 01:46:10 PM 54.1833 -130.3833 150° Southeast 150 173 3,700 1,450 Climbing Vancouver Center
Wed 01:47:10 PM 54.1667 -130.3333 120° Southeast 150 173 5,100 1,300 Climbing Vancouver Center
Wed 01:48:10 PM 54.1333 -130.3000 150° Southeast 160 184 6,300 1,150 Climbing Vancouver Center
Wed 01:49:10 PM 54.1000 -130.2333 130° Southeast 190 219 7,400 1,100 Climbing Vancouver Center
Wed 01:50:10 PM 54.0667 -130.1667 130° Southeast 190 219 8,500 1,150 Climbing Vancouver Center
Wed 01:51:10 PM 54.0167 -130.0833 136° Southeast 200 230 9,700 1,150 Climbing Vancouver Center
Wed 01:52:10 PM 53.9833 -130.0167 130° Southeast 200 230 10,800 1,100 Climbing Vancouver Center
Wed 01:53:10 PM 53.9500 -129.9500 130° Southeast 210 242 11,900 1,150 Climbing Vancouver Center
Wed 01:54:10 PM 53.9000 -129.8833 142° Southeast 210 242 13,100 1,150 Climbing Vancouver Center
Wed 01:55:10 PM 53.8500 -129.8000 135° Southeast 220 253 14,200 1,050 Climbing Vancouver Center
Wed 01:56:10 PM 53.8167 -129.7333 130° Southeast 220 253 15,200 900 Climbing Vancouver Center
Wed 01:57:10 PM 53.7667 -129.6500 135° Southeast 230 265 16,000 900 Climbing Vancouver Center
Wed 01:58:10 PM 53.7333 -129.5833 130° Southeast 230 265 17,000 850 Climbing Vancouver Center
Wed 01:59:10 PM 53.6833 -129.5000 135° Southeast 230 265 17,700 700 Climbing Vancouver Center
Wed 02:00:10 PM 53.6333 -129.4333 142° Southeast 240 276 18,400 800 Climbing Vancouver Center
Wed 02:01:10 PM 53.5833 -129.3333 130° Southeast 240 276 19,300 800 Climbing Vancouver Center
Wed 02:02:10 PM 53.5333 -129.2500 135° Southeast 240 276 20,000 700 Climbing Vancouver Center
Wed 02:03:10 PM 53.5000 -129.1833 130° Southeast 240 276 20,700 700 Climbing Vancouver Center
Wed 02:04:10 PM 53.4500 -129.1000 135° Southeast 240 276 21,400 700 Climbing Vancouver Center
Wed 02:05:10 PM 53.4000 -129.0333 142° Southeast 240 276 22,100 600 Climbing Vancouver Center
Wed 02:06:10 PM 53.3500 -128.9500 135° Southeast 240 276 22,600 450 Climbing Vancouver Center
Wed 02:07:10 PM 53.3000 -128.8833 141° Southeast 240 276 23,000 200 Climbing Vancouver Center
Wed 02:08:10 PM 53.2500 -128.8000 135° Southeast 250 288 23,000  Level Vancouver Center
Wed 02:09:10 PM 53.2000 -128.7000 130° Southeast 270 311 23,000  Level Vancouver Center
Wed 02:10:10 PM 53.1333 -128.6167 143° Southeast 270 311 23,000  Level Vancouver Center
Wed 02:11:10 PM 53.0833 -128.5167 130° Southeast 280 322 23,000  Level Vancouver Center
Wed 02:12:10 PM 53.0167 -128.4333 143° Southeast 280 322 23,000  Level Vancouver Center
Wed 02:13:10 PM 52.9833 -128.3500 124° Southeast 280 322 23,000  Level Vancouver Center
Wed 02:14:10 PM 52.9167 -128.2500 138° Southeast 290 334 23,000  Level Vancouver Center
Wed 02:15:10 PM 52.8500 -128.1667 143° Southeast 280 322 23,000  Level Vancouver Center
Wed 02:16:10 PM 52.8000 -128.0833 135° Southeast 280 322 23,000  Level Vancouver Center
Wed 02:17:10 PM 52.7333 -127.9667 133° Southeast 280 322 23,000  Level Vancouver Center
Wed 02:18:10 PM 52.6833 -127.9000 141° Southeast 280 322 23,000  Level Vancouver Center
Wed 02:19:10 PM 52.6333 -127.7833 125° Southeast 280 322 23,000  Level Vancouver Center
Wed 02:20:10 PM 52.5833 -127.7000 135° Southeast 280 322 23,000  Level Vancouver Center
Wed 02:21:10 PM 52.5167 -127.6333 149° Southeast 280 322 23,000  Level Vancouver Center
Wed 02:22:10 PM 52.4667 -127.5333 129° Southeast 280 322 23,000  Level Vancouver Center
Wed 02:23:10 PM 52.4000 -127.4333 138° Southeast 280 322 23,000  Level Vancouver Center
Wed 02:24:10 PM 52.3333 -127.3500 143° Southeast 280 322 23,000  Level Vancouver Center
Wed 02:25:10 PM 52.3000 -127.2667 123° Southeast 280 322 23,000  Level Vancouver Center
Wed 02:26:10 PM 52.2333 -127.1833 143° Southeast 280 322 23,000  Level Vancouver Center
Wed 02:27:10 PM 52.1833 -127.1000 134° Southeast 280 322 23,000  Level Vancouver Center
Wed 02:28:10 PM 52.1167 -127.0000 137° Southeast 280 322 23,000  Level Vancouver Center
Wed 02:29:10 PM 52.0667 -126.9167 134° Southeast 280 322 23,000  Level Vancouver Center
Wed 02:30:10 PM 52.0000 -126.8333 142° Southeast 280 322 23,000  Level Vancouver Center
Wed 02:31:10 PM 51.9500 -126.7500 134° Southeast 280 322 23,000  Level Vancouver Center
Wed 02:32:10 PM 51.9000 -126.6667 134° Southeast 280 322 23,000  Level Vancouver Center
Wed 02:33:10 PM 51.8500 -126.5833 134° Southeast 280 322 23,000  Level Vancouver Center
Wed 02:34:10 PM 51.7833 -126.5000 142° Southeast 280 322 23,000  Level Vancouver Center
Wed 02:35:10 PM 51.7167 -126.4167 142° Southeast 280 322 23,000  Level Vancouver Center
Wed 02:36:10 PM 51.6667 -126.3333 134° Southeast 280 322 23,000  Level Vancouver Center
Wed 02:37:10 PM 51.6000 -126.2500 142° Southeast 280 322 23,000  Level Vancouver Center
Wed 02:38:10 PM 51.5500 -126.1667 134° Southeast 280 322 23,000  Level Vancouver Center
Wed 02:39:10 PM 51.5000 -126.0833 134° Southeast 280 322 23,000  Level Vancouver Center
Wed 02:40:10 PM 51.4333 -126.0000 142° Southeast 280 322 23,000  Level Vancouver Center
Wed 02:41:10 PM 51.3833 -125.9167 134° Southeast 280 322 23,000  Level Vancouver Center
Wed 02:42:10 PM 51.3167 -125.8333 142° Southeast 280 322 23,000  Level Vancouver Center
Wed 02:43:10 PM 51.2667 -125.7500 134° Southeast 280 322 23,000  Level Vancouver Center
Wed 02:44:10 PM 51.2167 -125.6667 134° Southeast 280 322 23,000  Level Vancouver Center
Wed 02:45:10 PM 51.1500 -125.5833 142° Southeast 280 322 23,000  Level Vancouver Center
Wed 02:46:10 PM 51.1000 -125.5000 134° Southeast 270 311 23,000  Level Vancouver Center
Wed 02:47:10 PM 51.0333 -125.4167 142° Southeast 280 322 23,000  Level Vancouver Center
Wed 02:48:10 PM 50.9833 -125.3333 134° Southeast 270 311 23,000  Level Vancouver Center
Wed 02:49:10 PM 50.9167 -125.2500 142° Southeast 270 311 23,000  Level Vancouver Center
Wed 02:50:10 PM 50.8667 -125.1667 134° Southeast 280 322 23,000  Level Vancouver Center
Wed 02:51:10 PM 50.8000 -125.1000 148° Southeast 280 322 23,000  Level Vancouver Center
Wed 02:52:10 PM 50.7500 -125.0167 133° Southeast 280 322 23,000  Level Vancouver Center
Wed 02:53:10 PM 50.6833 -124.9333 142° Southeast 270 311 23,000  Level Vancouver Center
Wed 02:54:10 PM 50.6333 -124.8500 133° Southeast 280 322 23,000  Level Vancouver Center
Wed 02:55:10 PM 50.5667 -124.7667 142° Southeast 280 322 23,000  Level Vancouver Center
Wed 02:56:10 PM 50.5167 -124.6833 133° Southeast 280 322 23,000  Level Vancouver Center
Wed 02:57:10 PM 50.4500 -124.6333 154° Southeast 280 322 23,000  Level Vancouver Center
Wed 02:58:10 PM 50.4000 -124.5500 133° Southeast 280 322 23,000  Level Vancouver Center
Wed 02:59:10 PM 50.3333 -124.4833 147° Southeast 280 322 23,000 -200 Level Vancouver Center
Wed 03:00:10 PM 50.2833 -124.4000 133° Southeast 280 322 22,600 -850 Descending Vancouver Center
Wed 03:01:10 PM 50.2167 -124.3000 136° Southeast 300 345 21,300 -1,250 Descending Vancouver Center
Wed 03:02:10 PM 50.1500 -124.2167 141° Southeast 320 368 20,100 -1,250 Descending Vancouver Center
Wed 03:03:10 PM 50.0833 -124.1333 141° Southeast 320 368 18,800 -1,250 Descending Vancouver Center
Wed 03:04:10 PM 50.0000 -124.0333 142° Southeast 320 368 17,600 -1,200 Descending Vancouver Center
Wed 03:05:10 PM 49.9500 -123.9500 133° Southeast 310 357 16,400 -1,200 Descending Vancouver Center
Wed 03:06:10 PM 49.8833 -123.8833 147° Southeast 300 345 15,200 -1,200 Descending Vancouver Center
Wed 03:07:10 PM 49.8167 -123.8000 141° Southeast 300 345 14,000 -1,150 Descending Vancouver Center
Wed 03:08:10 PM 49.7667 -123.7167 133° Southeast 290 334 12,900 -1,200 Descending Vancouver Center
Wed 03:09:10 PM 49.7000 -123.6167 136° Southeast 290 334 11,600 -1,400 Descending Vancouver Center
Wed 03:10:10 PM 49.6167 -123.6000 173° South 280 322 10,100 -1,200 Descending Vancouver Center
Wed 03:11:10 PM 49.5500 -123.6000 180° South 270 311 9,200 -1,100 Descending Vancouver Center
Wed 03:12:10 PM 49.4833 -123.5667 162° South 260 299 7,900 -1,250 Descending Vancouver Center
Wed 03:13:10 PM 49.4167 -123.5667 180° South 250 288 6,700 -1,300 Descending Vancouver Center
Wed 03:14:10 PM 49.3333 -123.5667 180° South 240 276 5,300 -1,250 Descending Vancouver Center
Wed 03:15:10 PM 49.2833 -123.5667 180° South 220 253 4,200 -1,100 Descending Vancouver Center
Wed 03:16:10 PM 49.2333 -123.5167 147° Southeast 210 242 3,100 -800 Descending Vancouver Center
Wed 03:17:10 PM 49.2167 -123.4333 107° East 190 219 2,600 -450 Descending Vancouver Center
Wed 03:18:10 PM 49.2000 -123.3667 111° Southeast 190 219 2,200 -600 Descending Vancouver Center
Wed 03:19:10 PM 49.2000 -123.2833 90° East 160 184 1,400 -800 Descending Vancouver Center

Login

Don't have an account? Register now (free) for customized features, flight alerts, and more!